createdAt,value
2023-04-08T00:03:58.113Z,31.30
2023-04-08T00:13:59.257Z,31.20
2023-04-08T00:23:58.011Z,30.80
2023-04-08T00:28:58.099Z,30.80
2023-04-08T00:33:58.101Z,32.40
2023-04-08T00:43:58.117Z,32.20
2023-04-08T00:48:58.188Z,32.20
2023-04-08T00:53:59.640Z,29.30
2023-04-08T00:59:00.309Z,29.30
2023-04-08T01:04:08.396Z,27.10
2023-04-08T01:08:59.958Z,27.10
2023-04-08T01:18:58.540Z,26.30
2023-04-08T01:23:58.130Z,28.50
2023-04-08T01:29:00.631Z,28.50
2023-04-08T01:43:59.504Z,25.80
2023-04-08T01:48:59.901Z,25.80
2023-04-08T01:59:00.160Z,24.20
2023-04-08T02:03:59.635Z,24.90
2023-04-08T02:24:03.661Z,25.10
2023-04-08T02:38:58.451Z,24.50
2023-04-08T02:43:58.422Z,22.30
2023-04-08T02:48:58.426Z,22.30
2023-04-08T02:53:58.422Z,36.40
2023-04-08T03:08:58.464Z,43.90
2023-04-08T03:18:58.548Z,41.40
2023-04-08T03:28:58.513Z,36.30
2023-04-08T03:33:58.542Z,46.10
2023-04-08T03:38:58.576Z,46.10
2023-04-08T03:43:58.513Z,63.60
2023-04-08T03:48:58.501Z,63.60
2023-04-08T04:03:58.675Z,70.90
2023-04-08T04:08:58.622Z,70.90
2023-04-08T04:18:58.785Z,46.80
2023-04-08T04:23:58.612Z,22.50
2023-04-08T04:43:58.737Z,23.30
2023-04-08T04:53:58.721Z,19.90
2023-04-08T05:18:58.757Z,20.70
2023-04-08T05:23:58.772Z,19.90
2023-04-08T05:38:58.842Z,20.00
2023-04-08T05:48:58.907Z,20.30
2023-04-08T05:53:58.876Z,21.00
2023-04-08T05:58:58.865Z,21.00
2023-04-08T06:03:59.016Z,21.40
2023-04-08T06:13:58.909Z,22.90
2023-04-08T06:18:59.120Z,22.90
2023-04-08T06:23:58.912Z,23.00
2023-04-08T06:28:59.565Z,23.00
2023-04-08T06:33:58.956Z,24.20
2023-04-08T06:38:58.980Z,24.20
2023-04-08T06:48:59.056Z,24.90
2023-04-08T06:53:58.999Z,23.70
2023-04-08T06:58:59.210Z,23.70
2023-04-08T07:08:59.118Z,24.00
2023-04-08T07:13:59.072Z,22.80
2023-04-08T07:23:59.235Z,21.00
2023-04-08T07:33:59.538Z,21.50
2023-04-08T07:38:59.384Z,21.50
2023-04-08T07:43:59.443Z,23.30
2023-04-08T07:48:59.147Z,23.30
2023-04-08T07:58:59.389Z,21.40
2023-04-08T08:03:59.862Z,19.50
2023-04-08T08:08:59.951Z,19.50
2023-04-08T08:13:59.407Z,18.20
2023-04-08T08:18:59.552Z,18.20
2023-04-08T08:29:00.116Z,18.40
2023-04-08T08:33:59.346Z,16.70
2023-04-08T08:39:01.180Z,16.70
2023-04-08T08:48:59.350Z,15.70
2023-04-08T08:54:02.441Z,15.60
2023-04-08T08:58:59.325Z,15.60
2023-04-08T09:04:09.705Z,13.50
2023-04-08T09:08:59.531Z,13.50
2023-04-08T09:13:59.453Z,16.40
2023-04-08T09:19:09.616Z,16.40
2023-04-08T09:29:05.909Z,15.40
2023-04-08T09:38:59.478Z,16.80
2023-04-08T09:44:02.591Z,15.90
2023-04-08T09:49:09.360Z,15.90
2023-04-08T09:54:05.607Z,16.40
2023-04-08T09:59:10.274Z,16.40
2023-04-08T10:04:00.333Z,16.70
2023-04-08T10:09:01.587Z,16.70
2023-04-08T10:14:00.174Z,18.00
2023-04-08T10:18:59.531Z,18.00
2023-04-08T10:24:05.088Z,16.00
2023-04-08T10:29:16.897Z,16.00
2023-04-08T10:34:14.757Z,16.30
2023-04-08T10:38:59.753Z,16.30
2023-04-08T10:44:02.338Z,15.10
2023-04-08T10:49:01.288Z,15.10
2023-04-08T10:54:10.884Z,12.70
2023-04-08T10:58:59.649Z,12.70
2023-04-08T11:03:59.767Z,11.40
2023-04-08T11:09:01.975Z,11.40
2023-04-08T11:14:00.968Z,10.60
2023-04-08T11:19:02.943Z,10.60
2023-04-08T11:23:59.718Z,9.80
2023-04-08T11:29:00.118Z,9.80
2023-04-08T11:33:59.770Z,8.80
2023-04-08T11:38:59.739Z,8.80
2023-04-08T11:44:00.214Z,8.90
2023-04-08T11:49:02.985Z,8.90
2023-04-08T11:54:03.379Z,9.40
2023-04-08T11:59:00.139Z,9.40
2023-04-08T12:04:01.417Z,8.70
2023-04-08T12:09:00.041Z,8.70
2023-04-08T12:13:59.897Z,11.20
2023-04-08T12:19:00.147Z,11.20
2023-04-08T12:24:00.678Z,15.70
2023-04-08T12:29:00.575Z,15.70
2023-04-08T12:34:00.204Z,12.30
2023-04-08T12:39:00.107Z,12.30
2023-04-08T12:44:00.116Z,13.60
2023-04-08T12:49:04.089Z,13.60
2023-04-08T12:54:00.901Z,13.00
2023-04-08T12:59:00.368Z,13.00
2023-04-08T13:04:00.214Z,14.40
2023-04-08T13:14:00.054Z,14.20
2023-04-08T13:24:00.167Z,16.00
2023-04-08T13:29:00.586Z,16.00
2023-04-08T13:34:00.169Z,15.70
2023-04-08T13:39:00.149Z,15.70
2023-04-08T13:49:00.450Z,14.60
2023-04-08T13:54:00.270Z,13.70
2023-04-08T13:59:00.440Z,13.70
2023-04-08T14:04:00.376Z,12.70
2023-04-08T14:14:00.205Z,14.00
2023-04-08T14:19:00.393Z,14.00
2023-04-08T14:24:02.374Z,16.60
2023-04-08T14:29:01.782Z,16.60
2023-04-08T14:34:00.842Z,15.40
2023-04-08T14:39:00.523Z,15.40
2023-04-08T14:44:00.268Z,15.90
2023-04-08T14:59:00.323Z,13.80
2023-04-08T15:04:00.788Z,13.60
2023-04-08T15:09:00.520Z,13.60
2023-04-08T15:14:00.351Z,13.30
2023-04-08T15:19:01.236Z,13.30
2023-04-08T15:29:00.528Z,13.40
2023-04-08T15:34:01.536Z,13.30
2023-04-08T15:39:00.563Z,13.30
2023-04-08T15:44:00.892Z,15.00
2023-04-08T15:49:01.502Z,15.00
2023-04-08T15:54:00.483Z,17.50
2023-04-08T15:59:00.483Z,17.50
2023-04-08T16:04:01.101Z,17.80
2023-04-08T16:09:00.514Z,17.80
2023-04-08T16:14:00.782Z,16.40
2023-04-08T16:19:01.267Z,16.40
2023-04-08T16:24:00.824Z,17.10
2023-04-08T16:29:00.851Z,17.10
2023-04-08T16:34:00.611Z,17.30
2023-04-08T16:39:00.583Z,17.30
2023-04-08T16:44:00.581Z,16.90
2023-04-08T16:49:00.712Z,16.90
2023-04-08T16:54:00.803Z,16.50
2023-04-08T16:59:00.666Z,16.50
2023-04-08T17:04:00.642Z,15.40
2023-04-08T17:09:02.675Z,15.40
2023-04-08T17:14:00.702Z,14.00
2023-04-08T17:24:00.679Z,13.00
2023-04-08T17:29:00.690Z,13.00
2023-04-08T17:34:00.736Z,14.40
2023-04-08T17:44:00.811Z,14.50
2023-04-08T17:49:00.947Z,14.50
2023-04-08T17:59:00.850Z,15.10
2023-04-08T18:04:01.433Z,16.50
2023-04-08T18:09:02.733Z,16.50
2023-04-08T18:14:00.883Z,18.00
2023-04-08T18:24:00.895Z,17.10
2023-04-08T18:29:00.855Z,17.10
2023-04-08T18:34:01.108Z,19.10
2023-04-08T18:39:01.898Z,19.10
2023-04-08T18:44:03.056Z,18.10
2023-04-08T18:49:01.065Z,18.10
2023-04-08T18:54:00.929Z,19.10
2023-04-08T18:59:02.568Z,19.10
2023-04-08T19:14:00.959Z,18.30
2023-04-08T19:19:01.340Z,18.30
2023-04-08T19:24:03.724Z,16.40
2023-04-08T19:29:01.357Z,16.40
2023-04-08T19:34:01.039Z,17.50
2023-04-08T19:39:02.506Z,17.50
2023-04-08T19:44:01.129Z,19.60
2023-04-08T19:49:01.352Z,19.60
2023-04-08T19:54:01.196Z,21.00
2023-04-08T19:59:01.099Z,21.00
2023-04-08T20:04:01.492Z,22.50
2023-04-08T20:24:01.266Z,25.30
2023-04-08T20:29:01.142Z,25.30
2023-04-08T20:34:02.701Z,23.80
2023-04-08T20:39:01.446Z,23.80
2023-04-08T20:44:01.267Z,27.30
2023-04-08T20:49:02.532Z,27.30
2023-04-08T20:54:01.392Z,28.80
2023-04-08T20:59:01.302Z,28.80
2023-04-08T21:14:01.302Z,26.00
2023-04-08T21:19:02.985Z,26.00
2023-04-08T21:24:01.442Z,27.00
2023-04-08T21:44:01.625Z,27.40
2023-04-08T21:49:01.372Z,27.40
2023-04-08T21:54:01.446Z,27.60
2023-04-08T22:04:01.611Z,27.60
2023-04-08T22:14:01.458Z,26.40
2023-04-08T22:19:01.603Z,26.40
2023-04-08T22:29:01.497Z,27.40
2023-04-08T22:59:01.578Z,27.30
2023-04-08T23:04:01.677Z,29.50
2023-04-08T23:19:01.704Z,28.70
2023-04-08T23:24:01.752Z,31.40
2023-04-08T23:29:01.651Z,31.40
2023-04-08T23:34:01.734Z,30.40
